sensor_id;sensor_type;location;lat;lon;timestamp;temperature;humidity
4856;DHT22;2442;48.676;7.986;2024-01-27T12:07:55;5.70;99.90
4856;DHT22;2442;48.676;7.986;2024-01-27T12:22:39;6.20;99.90
4856;DHT22;2442;48.676;7.986;2024-01-27T12:25:11;6.30;99.90
4856;DHT22;2442;48.676;7.986;2024-01-27T12:27:39;6.30;99.90
4856;DHT22;2442;48.676;7.986;2024-01-27T12:30:06;6.40;99.90
4856;DHT22;2442;48.676;7.986;2024-01-27T12:32:33;6.40;99.90
4856;DHT22;2442;48.676;7.986;2024-01-27T12:35:05;6.30;99.90
4856;DHT22;2442;48.676;7.986;2024-01-27T12:37:31;6.30;99.90
4856;DHT22;2442;48.676;7.986;2024-01-27T12:39:58;6.40;99.90
4856;DHT22;2442;48.676;7.986;2024-01-27T12:42:26;6.40;99.90
4856;DHT22;2442;48.676;7.986;2024-01-27T12:44:53;6.50;99.90
4856;DHT22;2442;48.676;7.986;2024-01-27T12:47:20;6.40;99.90
4856;DHT22;2442;48.676;7.986;2024-01-27T12:49:46;6.40;99.90
4856;DHT22;2442;48.676;7.986;2024-01-27T12:52:13;6.40;99.90
4856;DHT22;2442;48.676;7.986;2024-01-27T12:54:40;6.30;99.90
4856;DHT22;2442;48.676;7.986;2024-01-27T12:57:06;6.50;99.90
4856;DHT22;2442;48.676;7.986;2024-01-27T12:59:35;6.60;99.90
4856;DHT22;2442;48.676;7.986;2024-01-27T13:02:02;6.60;99.90
4856;DHT22;2442;48.676;7.986;2024-01-27T13:04:29;6.60;99.90
4856;DHT22;2442;48.676;7.986;2024-01-27T13:06:55;6.50;99.90
4856;DHT22;2442;48.676;7.986;2024-01-27T13:09:22;6.60;99.90
4856;DHT22;2442;48.676;7.986;2024-01-27T13:11:49;6.60;99.90
4856;DHT22;2442;48.676;7.986;2024-01-27T13:14:15;6.60;99.90
4856;DHT22;2442;48.676;7.986;2024-01-27T13:16:45;6.60;99.90
4856;DHT22;2442;48.676;7.986;2024-01-27T13:19:12;6.60;99.90
4856;DHT22;2442;48.676;7.986;2024-01-27T13:24:06;6.70;99.90
4856;DHT22;2442;48.676;7.986;2024-01-27T13:26:34;6.70;99.90
4856;DHT22;2442;48.676;7.986;2024-01-27T13:29:03;6.80;99.90
4856;DHT22;2442;48.676;7.986;2024-01-27T13:31:29;6.90;99.90
4856;DHT22;2442;48.676;7.986;2024-01-27T13:33:57;6.80;99.90
4856;DHT22;2442;48.676;7.986;2024-01-27T13:36:24;6.70;99.90
4856;DHT22;2442;48.676;7.986;2024-01-27T13:38:51;6.70;99.90
4856;DHT22;2442;48.676;7.986;2024-01-27T13:41:18;6.80;99.90
4856;DHT22;2442;48.676;7.986;2024-01-27T13:43:44;6.80;99.90
4856;DHT22;2442;48.676;7.986;2024-01-27T13:46:11;6.80;99.90
4856;DHT22;2442;48.676;7.986;2024-01-27T13:48:38;6.80;99.90
4856;DHT22;2442;48.676;7.986;2024-01-27T13:51:07;6.80;99.90
4856;DHT22;2442;48.676;7.986;2024-01-27T13:53:33;6.80;99.90
4856;DHT22;2442;48.676;7.986;2024-01-27T13:56:00;6.90;99.90
4856;DHT22;2442;48.676;7.986;2024-01-27T13:58:27;7.00;99.90
4856;DHT22;2442;48.676;7.986;2024-01-27T14:00:53;6.80;99.90
4856;DHT22;2442;48.676;7.986;2024-01-27T14:03:20;6.90;99.90
4856;DHT22;2442;48.676;7.986;2024-01-27T14:05:47;6.90;99.90
4856;DHT22;2442;48.676;7.986;2024-01-27T14:08:15;6.90;99.90
4856;DHT22;2442;48.676;7.986;2024-01-27T14:10:43;7.00;99.90
4856;DHT22;2442;48.676;7.986;2024-01-27T14:13:09;7.00;99.90
4856;DHT22;2442;48.676;7.986;2024-01-27T14:15:36;7.00;99.90
4856;DHT22;2442;48.676;7.986;2024-01-27T14:18:03;7.00;99.90
4856;DHT22;2442;48.676;7.986;2024-01-27T14:20:31;7.00;99.90
4856;DHT22;2442;48.676;7.986;2024-01-27T14:22:59;7.00;99.90
4856;DHT22;2442;48.676;7.986;2024-01-27T14:25:27;7.10;99.90
4856;DHT22;2442;48.676;7.986;2024-01-27T14:27:54;7.10;99.90
4856;DHT22;2442;48.676;7.986;2024-01-27T14:30:21;7.20;99.90
4856;DHT22;2442;48.676;7.986;2024-01-27T14:32:48;7.20;99.90
4856;DHT22;2442;48.676;7.986;2024-01-27T14:35:15;7.30;99.90
4856;DHT22;2442;48.676;7.986;2024-01-27T14:37:41;7.30;99.90
4856;DHT22;2442;48.676;7.986;2024-01-27T14:40:08;7.40;99.90
4856;DHT22;2442;48.676;7.986;2024-01-27T14:42:37;7.40;99.90
4856;DHT22;2442;48.676;7.986;2024-01-27T14:45:05;7.50;99.90
4856;DHT22;2442;48.676;7.986;2024-01-27T14:47:32;7.50;99.90
4856;DHT22;2442;48.676;7.986;2024-01-27T14:49:58;7.50;99.90
4856;DHT22;2442;48.676;7.986;2024-01-27T14:52:25;7.50;99.90
4856;DHT22;2442;48.676;7.986;2024-01-27T14:54:52;7.50;99.90
4856;DHT22;2442;48.676;7.986;2024-01-27T14:57:18;7.50;99.90
4856;DHT22;2442;48.676;7.986;2024-01-27T14:59:47;7.40;99.90
4856;DHT22;2442;48.676;7.986;2024-01-27T15:02:13;7.40;99.90
4856;DHT22;2442;48.676;7.986;2024-01-27T15:04:40;7.40;99.90
4856;DHT22;2442;48.676;7.986;2024-01-27T15:07:07;7.40;99.90
4856;DHT22;2442;48.676;7.986;2024-01-27T15:09:35;7.40;99.90
4856;DHT22;2442;48.676;7.986;2024-01-27T15:12:01;7.40;99.90
4856;DHT22;2442;48.676;7.986;2024-01-27T15:14:28;7.30;99.90
4856;DHT22;2442;48.676;7.986;2024-01-27T15:16:58;7.30;99.90
4856;DHT22;2442;48.676;7.986;2024-01-27T15:19:25;7.30;99.90
4856;DHT22;2442;48.676;7.986;2024-01-27T15:21:52;7.20;99.90
4856;DHT22;2442;48.676;7.986;2024-01-27T15:24:19;7.20;99.90
4856;DHT22;2442;48.676;7.986;2024-01-27T15:26:46;7.20;99.90
4856;DHT22;2442;48.676;7.986;2024-01-27T15:29:12;7.20;99.90
4856;DHT22;2442;48.676;7.986;2024-01-27T15:31:39;7.20;99.90
4856;DHT22;2442;48.676;7.986;2024-01-27T15:34:07;7.10;99.90
4856;DHT22;2442;48.676;7.986;2024-01-27T15:39:00;6.80;99.90
4856;DHT22;2442;48.676;7.986;2024-01-27T15:41:27;6.80;99.90
4856;DHT22;2442;48.676;7.986;2024-01-27T15:43:54;6.80;99.90
4856;DHT22;2442;48.676;7.986;2024-01-27T15:46:22;6.60;99.90
4856;DHT22;2442;48.676;7.986;2024-01-27T15:48:49;6.50;99.90
4856;DHT22;2442;48.676;7.986;2024-01-27T15:51:17;6.30;99.90
4856;DHT22;2442;48.676;7.986;2024-01-27T15:53:44;6.20;99.90
4856;DHT22;2442;48.676;7.986;2024-01-27T15:56:10;6.10;99.90
4856;DHT22;2442;48.676;7.986;2024-01-27T15:58:37;6.10;99.90
4856;DHT22;2442;48.676;7.986;2024-01-27T16:01:04;6.00;99.90
4856;DHT22;2442;48.676;7.986;2024-01-27T16:03:30;6.00;99.90
4856;DHT22;2442;48.676;7.986;2024-01-27T16:05:57;6.00;99.90
4856;DHT22;2442;48.676;7.986;2024-01-27T16:08:25;5.90;99.90
4856;DHT22;2442;48.676;7.986;2024-01-27T16:10:52;5.80;99.90
4856;DHT22;2442;48.676;7.986;2024-01-27T16:13:18;5.60;99.90
4856;DHT22;2442;48.676;7.986;2024-01-27T16:15:45;5.60;99.90
4856;DHT22;2442;48.676;7.986;2024-01-27T16:18:13;5.50;99.90
4856;DHT22;2442;48.676;7.986;2024-01-27T16:20:39;5.40;99.90
4856;DHT22;2442;48.676;7.986;2024-01-27T16:23:06;5.40;99.90
4856;DHT22;2442;48.676;7.986;2024-01-27T16:25:34;5.40;99.90
4856;DHT22;2442;48.676;7.986;2024-01-27T16:28:01;5.30;99.90
4856;DHT22;2442;48.676;7.986;2024-01-27T16:30:28;5.20;99.90
4856;DHT22;2442;48.676;7.986;2024-01-27T16:32:54;5.30;99.90
4856;DHT22;2442;48.676;7.986;2024-01-27T16:35:21;5.20;99.90
4856;DHT22;2442;48.676;7.986;2024-01-27T16:37:48;5.30;99.90
4856;DHT22;2442;48.676;7.986;2024-01-27T16:40:14;5.30;99.90
4856;DHT22;2442;48.676;7.986;2024-01-27T16:42:43;5.40;99.90
4856;DHT22;2442;48.676;7.986;2024-01-27T16:45:09;5.40;99.90
4856;DHT22;2442;48.676;7.986;2024-01-27T16:47:36;5.40;99.90
4856;DHT22;2442;48.676;7.986;2024-01-27T16:50:03;5.30;99.90
4856;DHT22;2442;48.676;7.986;2024-01-27T16:52:29;5.30;99.90
4856;DHT22;2442;48.676;7.986;2024-01-27T16:54:57;5.30;99.90
4856;DHT22;2442;48.676;7.986;2024-01-27T16:57:24;5.10;99.90
4856;DHT22;2442;48.676;7.986;2024-01-27T16:59:52;4.90;99.90
4856;DHT22;2442;48.676;7.986;2024-01-27T17:02:19;4.90;99.90
4856;DHT22;2442;48.676;7.986;2024-01-27T17:04:46;4.90;99.90
4856;DHT22;2442;48.676;7.986;2024-01-27T17:07:15;4.90;99.90
4856;DHT22;2442;48.676;7.986;2024-01-27T17:09:41;4.90;99.90
4856;DHT22;2442;48.676;7.986;2024-01-27T17:12:08;4.80;99.90
4856;DHT22;2442;48.676;7.986;2024-01-27T17:14:36;4.80;99.90
4856;DHT22;2442;48.676;7.986;2024-01-27T17:17:04;4.90;99.90
4856;DHT22;2442;48.676;7.986;2024-01-27T17:19:31;4.90;99.90
4856;DHT22;2442;48.676;7.986;2024-01-27T17:21:58;4.80;99.90
4856;DHT22;2442;48.676;7.986;2024-01-27T17:24:26;4.80;99.90
4856;DHT22;2442;48.676;7.986;2024-01-27T17:26:53;4.60;99.90
4856;DHT22;2442;48.676;7.986;2024-01-27T17:29:19;4.40;99.90
4856;DHT22;2442;48.676;7.986;2024-01-27T17:34:15;3.90;99.90
4856;DHT22;2442;48.676;7.986;2024-01-27T17:36:42;3.90;99.90
4856;DHT22;2442;48.676;7.986;2024-01-27T17:39:09;3.70;99.90
4856;DHT22;2442;48.676;7.986;2024-01-27T17:41:36;3.60;99.90
4856;DHT22;2442;48.676;7.986;2024-01-27T17:44:02;3.50;99.90
4856;DHT22;2442;48.676;7.986;2024-01-27T17:46:29;3.60;99.90
4856;DHT22;2442;48.676;7.986;2024-01-27T17:48:56;3.60;99.90
4856;DHT22;2442;48.676;7.986;2024-01-27T17:51:24;3.60;99.90
4856;DHT22;2442;48.676;7.986;2024-01-27T17:53:51;3.30;99.90
4856;DHT22;2442;48.676;7.986;2024-01-27T17:56:20;3.00;99.90
4856;DHT22;2442;48.676;7.986;2024-01-27T17:58:48;2.80;99.90
4856;DHT22;2442;48.676;7.986;2024-01-27T18:01:14;2.60;99.90
4856;DHT22;2442;48.676;7.986;2024-01-27T18:03:41;2.50;99.90
4856;DHT22;2442;48.676;7.986;2024-01-27T18:06:08;2.60;99.90
4856;DHT22;2442;48.676;7.986;2024-01-27T18:08:36;2.30;99.90
4856;DHT22;2442;48.676;7.986;2024-01-27T18:11:02;2.30;99.90
4856;DHT22;2442;48.676;7.986;2024-01-27T18:13:29;2.50;99.90
4856;DHT22;2442;48.676;7.986;2024-01-27T18:15:56;2.20;99.90
4856;DHT22;2442;48.676;7.986;2024-01-27T18:18:24;2.10;99.90
4856;DHT22;2442;48.676;7.986;2024-01-27T18:20:51;1.90;99.90
4856;DHT22;2442;48.676;7.986;2024-01-27T18:23:18;1.90;99.90
4856;DHT22;2442;48.676;7.986;2024-01-27T18:25:46;2.00;99.90
4856;DHT22;2442;48.676;7.986;2024-01-27T18:28:13;2.00;99.90
4856;DHT22;2442;48.676;7.986;2024-01-27T18:30:39;2.00;99.90
4856;DHT22;2442;48.676;7.986;2024-01-27T18:33:06;2.10;99.90
4856;DHT22;2442;48.676;7.986;2024-01-27T18:35:32;2.00;99.90
4856;DHT22;2442;48.676;7.986;2024-01-27T18:37:59;1.50;99.90
4856;DHT22;2442;48.676;7.986;2024-01-27T18:42:54;1.40;99.90
4856;DHT22;2442;48.676;7.986;2024-01-27T18:45:21;1.70;99.90
4856;DHT22;2442;48.676;7.986;2024-01-27T18:47:47;1.60;99.90
4856;DHT22;2442;48.676;7.986;2024-01-27T18:50:14;1.40;99.90
4856;DHT22;2442;48.676;7.986;2024-01-27T18:52:41;1.70;99.90
4856;DHT22;2442;48.676;7.986;2024-01-27T19:00:06;1.50;99.90
4856;DHT22;2442;48.676;7.986;2024-01-27T19:05:00;1.00;99.90
4856;DHT22;2442;48.676;7.986;2024-01-27T19:09:58;1.40;99.90
4856;DHT22;2442;48.676;7.986;2024-01-27T19:14:51;1.30;99.90
4856;DHT22;2442;48.676;7.986;2024-01-27T19:19:46;1.40;99.90
4856;DHT22;2442;48.676;7.986;2024-01-27T19:24:40;1.00;99.90
4856;DHT22;2442;48.676;7.986;2024-01-27T19:29:34;0.80;99.90
4856;DHT22;2442;48.676;7.986;2024-01-27T19:32:01;0.90;99.90
4856;DHT22;2442;48.676;7.986;2024-01-27T19:34:30;1.00;99.90
4856;DHT22;2442;48.676;7.986;2024-01-27T19:36:58;0.80;99.90
4856;DHT22;2442;48.676;7.986;2024-01-27T19:39:24;1.00;99.90
4856;DHT22;2442;48.676;7.986;2024-01-27T19:41:51;0.70;99.90
4856;DHT22;2442;48.676;7.986;2024-01-27T19:44:18;0.40;99.90
4856;DHT22;2442;48.676;7.986;2024-01-27T19:46:44;0.40;99.90
4856;DHT22;2442;48.676;7.986;2024-01-27T19:49:11;0.50;99.90
4856;DHT22;2442;48.676;7.986;2024-01-27T20:01:27;0.70;99.90
4856;DHT22;2442;48.676;7.986;2024-01-27T20:03:54;0.70;99.90
4856;DHT22;2442;48.676;7.986;2024-01-27T20:06:20;0.60;99.90
4856;DHT22;2442;48.676;7.986;2024-01-27T20:08:47;0.70;99.90
4856;DHT22;2442;48.676;7.986;2024-01-27T20:13:40;0.50;99.90
